sensor_id;sensor_type;location;lat;lon;timestamp;temperature;humidity
6407;DHT22;3236;51.022;6.818;2023-02-01T00:02:10;6.60;99.90
6407;DHT22;3236;51.022;6.818;2023-02-01T00:04:37;6.10;99.90
6407;DHT22;3236;51.022;6.818;2023-02-01T00:07:04;6.50;99.90
6407;DHT22;3236;51.022;6.818;2023-02-01T00:09:33;6.20;99.90
6407;DHT22;3236;51.022;6.818;2023-02-01T00:12:00;6.20;99.90
6407;DHT22;3236;51.022;6.818;2023-02-01T00:14:29;6.40;99.90
6407;DHT22;3236;51.022;6.818;2023-02-01T00:16:57;6.70;99.90
6407;DHT22;3236;51.022;6.818;2023-02-01T00:19:24;6.50;99.90
6407;DHT22;3236;51.022;6.818;2023-02-01T00:21:52;6.50;99.90
6407;DHT22;3236;51.022;6.818;2023-02-01T00:24:19;6.70;99.90
6407;DHT22;3236;51.022;6.818;2023-02-01T00:26:48;6.50;99.90
6407;DHT22;3236;51.022;6.818;2023-02-01T00:29:17;6.50;99.90
6407;DHT22;3236;51.022;6.818;2023-02-01T00:31:45;6.50;99.90
6407;DHT22;3236;51.022;6.818;2023-02-01T00:34:13;6.40;99.90
6407;DHT22;3236;51.022;6.818;2023-02-01T00:39:12;6.30;99.90
6407;DHT22;3236;51.022;6.818;2023-02-01T00:41:39;6.20;99.90
6407;DHT22;3236;51.022;6.818;2023-02-01T00:44:08;6.10;99.90
6407;DHT22;3236;51.022;6.818;2023-02-01T00:46:36;6.30;99.90
6407;DHT22;3236;51.022;6.818;2023-02-01T00:49:03;6.00;99.90
6407;DHT22;3236;51.022;6.818;2023-02-01T00:51:31;6.40;99.90
6407;DHT22;3236;51.022;6.818;2023-02-01T00:56:29;6.10;99.90
6407;DHT22;3236;51.022;6.818;2023-02-01T00:58:56;6.00;99.90
6407;DHT22;3236;51.022;6.818;2023-02-01T01:01:26;6.00;99.90
6407;DHT22;3236;51.022;6.818;2023-02-01T01:03:55;6.00;99.90
6407;DHT22;3236;51.022;6.818;2023-02-01T01:06:24;6.00;99.90
6407;DHT22;3236;51.022;6.818;2023-02-01T01:08:52;5.90;99.90
6407;DHT22;3236;51.022;6.818;2023-02-01T01:11:21;6.10;99.90
6407;DHT22;3236;51.022;6.818;2023-02-01T01:13:56;6.10;99.90
6407;DHT22;3236;51.022;6.818;2023-02-01T01:16:27;5.90;99.90
6407;DHT22;3236;51.022;6.818;2023-02-01T01:18:55;6.00;99.90
6407;DHT22;3236;51.022;6.818;2023-02-01T01:21:22;5.80;99.90
6407;DHT22;3236;51.022;6.818;2023-02-01T01:23:49;5.80;99.90
6407;DHT22;3236;51.022;6.818;2023-02-01T01:26:18;6.20;99.90
6407;DHT22;3236;51.022;6.818;2023-02-01T01:28:45;5.60;99.90
6407;DHT22;3236;51.022;6.818;2023-02-01T01:31:14;5.80;99.90
6407;DHT22;3236;51.022;6.818;2023-02-01T01:33:43;5.60;99.90
6407;DHT22;3236;51.022;6.818;2023-02-01T01:36:11;5.70;99.90
6407;DHT22;3236;51.022;6.818;2023-02-01T01:38:39;5.70;99.90
6407;DHT22;3236;51.022;6.818;2023-02-01T01:43:48;5.60;99.90
6407;DHT22;3236;51.022;6.818;2023-02-01T01:46:18;5.90;99.90
6407;DHT22;3236;51.022;6.818;2023-02-01T01:48:59;5.60;99.90
6407;DHT22;3236;51.022;6.818;2023-02-01T01:51:28;5.40;99.90
6407;DHT22;3236;51.022;6.818;2023-02-01T01:54:02;5.40;99.90
6407;DHT22;3236;51.022;6.818;2023-02-01T01:56:32;5.50;99.90
6407;DHT22;3236;51.022;6.818;2023-02-01T01:59:04;5.50;99.90
6407;DHT22;3236;51.022;6.818;2023-02-01T02:01:35;5.90;99.90
6407;DHT22;3236;51.022;6.818;2023-02-01T02:04:04;5.60;99.90
6407;DHT22;3236;51.022;6.818;2023-02-01T02:06:40;5.60;99.90
6407;DHT22;3236;51.022;6.818;2023-02-01T02:09:11;5.60;99.90
6407;DHT22;3236;51.022;6.818;2023-02-01T02:11:38;5.50;99.90
6407;DHT22;3236;51.022;6.818;2023-02-01T02:14:07;5.60;99.90
6407;DHT22;3236;51.022;6.818;2023-02-01T02:17:08;5.60;99.90
6407;DHT22;3236;51.022;6.818;2023-02-01T02:23:16;5.60;99.90
6407;DHT22;3236;51.022;6.818;2023-02-01T02:26:18;5.80;99.90
6407;DHT22;3236;51.022;6.818;2023-02-01T02:32:37;5.40;99.90
6407;DHT22;3236;51.022;6.818;2023-02-01T02:35:17;6.70;99.90
6407;DHT22;3236;51.022;6.818;2023-02-01T02:37:53;6.10;99.90
6407;DHT22;3236;51.022;6.818;2023-02-01T02:40:27;5.80;99.90
6407;DHT22;3236;51.022;6.818;2023-02-01T02:43:05;5.80;99.90
6407;DHT22;3236;51.022;6.818;2023-02-01T02:45:53;5.80;99.90
6407;DHT22;3236;51.022;6.818;2023-02-01T02:48:47;5.80;99.90
6407;DHT22;3236;51.022;6.818;2023-02-01T02:51:23;6.70;99.90
6407;DHT22;3236;51.022;6.818;2023-02-01T02:54:12;5.80;99.90
6407;DHT22;3236;51.022;6.818;2023-02-01T02:56:56;5.90;99.90
6407;DHT22;3236;51.022;6.818;2023-02-01T02:59:42;5.90;99.90
6407;DHT22;3236;51.022;6.818;2023-02-01T03:02:27;5.30;99.90
6407;DHT22;3236;51.022;6.818;2023-02-01T03:05:12;5.90;99.90
6407;DHT22;3236;51.022;6.818;2023-02-01T03:08:00;5.90;99.90
6407;DHT22;3236;51.022;6.818;2023-02-01T03:10:35;6.30;99.90
6407;DHT22;3236;51.022;6.818;2023-02-01T03:13:08;6.10;99.90
6407;DHT22;3236;51.022;6.818;2023-02-01T03:15:39;5.10;99.90
6407;DHT22;3236;51.022;6.818;2023-02-01T03:18:18;6.00;99.90
6407;DHT22;3236;51.022;6.818;2023-02-01T03:20:49;6.10;99.90
6407;DHT22;3236;51.022;6.818;2023-02-01T03:23:23;5.90;99.90
6407;DHT22;3236;51.022;6.818;2023-02-01T03:25:52;5.90;99.90
6407;DHT22;3236;51.022;6.818;2023-02-01T03:28:23;6.10;99.90
6407;DHT22;3236;51.022;6.818;2023-02-01T03:30:51;6.20;99.90
6407;DHT22;3236;51.022;6.818;2023-02-01T03:33:23;5.80;99.90
6407;DHT22;3236;51.022;6.818;2023-02-01T03:35:59;6.00;99.90
6407;DHT22;3236;51.022;6.818;2023-02-01T03:38:31;5.90;99.90
6407;DHT22;3236;51.022;6.818;2023-02-01T03:41:01;6.00;99.90
6407;DHT22;3236;51.022;6.818;2023-02-01T03:43:37;6.00;99.90
6407;DHT22;3236;51.022;6.818;2023-02-01T03:46:14;5.90;99.90
6407;DHT22;3236;51.022;6.818;2023-02-01T03:48:44;5.60;99.90
6407;DHT22;3236;51.022;6.818;2023-02-01T03:51:12;5.90;99.90
6407;DHT22;3236;51.022;6.818;2023-02-01T03:53:43;6.10;99.90
6407;DHT22;3236;51.022;6.818;2023-02-01T03:56:12;5.90;99.90
6407;DHT22;3236;51.022;6.818;2023-02-01T03:58:39;5.90;99.90
6407;DHT22;3236;51.022;6.818;2023-02-01T04:01:10;5.90;99.90
6407;DHT22;3236;51.022;6.818;2023-02-01T04:03:37;6.00;99.90
6407;DHT22;3236;51.022;6.818;2023-02-01T04:06:04;6.00;99.90
6407;DHT22;3236;51.022;6.818;2023-02-01T04:08:31;6.00;99.90
6407;DHT22;3236;51.022;6.818;2023-02-01T04:11:00;6.30;99.90
6407;DHT22;3236;51.022;6.818;2023-02-01T04:13:27;6.30;99.90
6407;DHT22;3236;51.022;6.818;2023-02-01T04:15:54;6.10;99.90
6407;DHT22;3236;51.022;6.818;2023-02-01T04:18:21;6.00;99.90
6407;DHT22;3236;51.022;6.818;2023-02-01T04:20:48;6.10;99.90
6407;DHT22;3236;51.022;6.818;2023-02-01T04:23:15;6.00;99.90
6407;DHT22;3236;51.022;6.818;2023-02-01T04:25:42;6.00;99.90
6407;DHT22;3236;51.022;6.818;2023-02-01T04:28:11;5.80;99.90
6407;DHT22;3236;51.022;6.818;2023-02-01T04:30:41;6.30;99.90
6407;DHT22;3236;51.022;6.818;2023-02-01T04:33:08;5.90;99.90
6407;DHT22;3236;51.022;6.818;2023-02-01T04:35:39;6.20;99.90
6407;DHT22;3236;51.022;6.818;2023-02-01T04:38:06;5.80;99.90
6407;DHT22;3236;51.022;6.818;2023-02-01T04:40:35;6.00;99.90
6407;DHT22;3236;51.022;6.818;2023-02-01T04:43:03;5.90;99.90
6407;DHT22;3236;51.022;6.818;2023-02-01T04:45:34;6.10;99.90
6407;DHT22;3236;51.022;6.818;2023-02-01T04:48:01;5.70;99.90
6407;DHT22;3236;51.022;6.818;2023-02-01T04:50:29;5.60;99.90
6407;DHT22;3236;51.022;6.818;2023-02-01T04:52:56;5.70;99.90
6407;DHT22;3236;51.022;6.818;2023-02-01T04:55:23;5.50;99.90
6407;DHT22;3236;51.022;6.818;2023-02-01T04:57:50;5.80;99.90
6407;DHT22;3236;51.022;6.818;2023-02-01T05:00:17;5.60;99.90
6407;DHT22;3236;51.022;6.818;2023-02-01T05:02:46;5.70;99.90
6407;DHT22;3236;51.022;6.818;2023-02-01T05:05:13;5.50;99.90
6407;DHT22;3236;51.022;6.818;2023-02-01T05:07:41;5.30;99.90
6407;DHT22;3236;51.022;6.818;2023-02-01T05:10:11;5.50;99.90
6407;DHT22;3236;51.022;6.818;2023-02-01T05:12:38;5.50;99.90
6407;DHT22;3236;51.022;6.818;2023-02-01T05:15:23;5.40;99.90
6407;DHT22;3236;51.022;6.818;2023-02-01T05:17:52;5.70;99.90
6407;DHT22;3236;51.022;6.818;2023-02-01T05:20:22;5.40;99.90
6407;DHT22;3236;51.022;6.818;2023-02-01T05:22:49;5.40;99.90
6407;DHT22;3236;51.022;6.818;2023-02-01T05:25:16;5.30;99.90
6407;DHT22;3236;51.022;6.818;2023-02-01T05:27:44;5.30;99.90
6407;DHT22;3236;51.022;6.818;2023-02-01T05:30:13;5.40;99.90
6407;DHT22;3236;51.022;6.818;2023-02-01T05:32:40;5.20;99.90
6407;DHT22;3236;51.022;6.818;2023-02-01T05:35:10;4.90;99.90
6407;DHT22;3236;51.022;6.818;2023-02-01T05:37:37;5.50;99.90
6407;DHT22;3236;51.022;6.818;2023-02-01T05:40:05;5.50;99.90
6407;DHT22;3236;51.022;6.818;2023-02-01T05:42:32;5.10;99.90
6407;DHT22;3236;51.022;6.818;2023-02-01T05:44:59;5.20;99.90
6407;DHT22;3236;51.022;6.818;2023-02-01T05:47:29;5.30;99.90
6407;DHT22;3236;51.022;6.818;2023-02-01T05:50:02;5.10;99.90
6407;DHT22;3236;51.022;6.818;2023-02-01T05:52:31;5.70;99.90
6407;DHT22;3236;51.022;6.818;2023-02-01T05:54:58;5.20;99.90
6407;DHT22;3236;51.022;6.818;2023-02-01T05:57:26;5.20;99.90
6407;DHT22;3236;51.022;6.818;2023-02-01T05:59:53;5.80;99.90
6407;DHT22;3236;51.022;6.818;2023-02-01T06:02:24;5.20;99.90
6407;DHT22;3236;51.022;6.818;2023-02-01T06:04:54;5.00;99.90
6407;DHT22;3236;51.022;6.818;2023-02-01T06:07:21;5.00;99.90
6407;DHT22;3236;51.022;6.818;2023-02-01T06:09:50;5.00;99.90
6407;DHT22;3236;51.022;6.818;2023-02-01T06:12:17;5.00;99.90
6407;DHT22;3236;51.022;6.818;2023-02-01T06:14:44;5.00;99.90
6407;DHT22;3236;51.022;6.818;2023-02-01T06:17:11;5.00;99.90
6407;DHT22;3236;51.022;6.818;2023-02-01T06:19:38;5.00;99.90
6407;DHT22;3236;51.022;6.818;2023-02-01T06:22:06;4.80;99.90
6407;DHT22;3236;51.022;6.818;2023-02-01T06:24:33;5.00;99.90
6407;DHT22;3236;51.022;6.818;2023-02-01T06:27:02;5.00;99.90
6407;DHT22;3236;51.022;6.818;2023-02-01T06:29:29;5.10;99.90
6407;DHT22;3236;51.022;6.818;2023-02-01T06:31:56;4.80;99.90
6407;DHT22;3236;51.022;6.818;2023-02-01T06:34:23;5.00;99.90
6407;DHT22;3236;51.022;6.818;2023-02-01T06:36:50;5.10;99.90
6407;DHT22;3236;51.022;6.818;2023-02-01T06:39:18;5.80;99.90
6407;DHT22;3236;51.022;6.818;2023-02-01T06:41:46;5.20;99.90
6407;DHT22;3236;51.022;6.818;2023-02-01T06:46:43;5.40;99.90
6407;DHT22;3236;51.022;6.818;2023-02-01T06:51:39;5.80;99.90
6407;DHT22;3236;51.022;6.818;2023-02-01T06:54:06;5.00;99.90
6407;DHT22;3236;51.022;6.818;2023-02-01T06:56:33;5.20;99.90
6407;DHT22;3236;51.022;6.818;2023-02-01T06:59:03;5.50;99.90
6407;DHT22;3236;51.022;6.818;2023-02-01T07:01:33;5.30;99.90
6407;DHT22;3236;51.022;6.818;2023-02-01T07:04:00;5.40;99.90
6407;DHT22;3236;51.022;6.818;2023-02-01T07:06:27;5.40;99.90
6407;DHT22;3236;51.022;6.818;2023-02-01T07:11:22;5.40;99.90
6407;DHT22;3236;51.022;6.818;2023-02-01T07:13:50;5.70;99.90
6407;DHT22;3236;51.022;6.818;2023-02-01T07:16:19;5.40;99.90
6407;DHT22;3236;51.022;6.818;2023-02-01T07:18:49;5.50;99.90
6407;DHT22;3236;51.022;6.818;2023-02-01T07:23:44;5.60;99.90
6407;DHT22;3236;51.022;6.818;2023-02-01T07:26:13;5.50;99.90
6407;DHT22;3236;51.022;6.818;2023-02-01T07:28:47;5.50;99.90
6407;DHT22;3236;51.022;6.818;2023-02-01T07:31:16;5.80;99.90
6407;DHT22;3236;51.022;6.818;2023-02-01T07:33:49;5.50;99.90
6407;DHT22;3236;51.022;6.818;2023-02-01T07:36:21;5.30;99.90
6407;DHT22;3236;51.022;6.818;2023-02-01T07:38:48;5.50;99.90
6407;DHT22;3236;51.022;6.818;2023-02-01T07:41:16;5.60;99.90
6407;DHT22;3236;51.022;6.818;2023-02-01T07:43:47;5.50;99.90
6407;DHT22;3236;51.022;6.818;2023-02-01T07:46:16;5.60;99.90
6407;DHT22;3236;51.022;6.818;2023-02-01T07:48:43;5.50;99.90
6407;DHT22;3236;51.022;6.818;2023-02-01T07:51:13;5.50;99.90
6407;DHT22;3236;51.022;6.818;2023-02-01T07:53:41;5.60;99.90
6407;DHT22;3236;51.022;6.818;2023-02-01T07:56:11;5.40;99.90
6407;DHT22;3236;51.022;6.818;2023-02-01T07:58:39;5.50;99.90
6407;DHT22;3236;51.022;6.818;2023-02-01T08:01:14;5.50;99.90
6407;DHT22;3236;51.022;6.818;2023-02-01T08:03:48;5.50;99.90
6407;DHT22;3236;51.022;6.818;2023-02-01T08:06:17;5.80;99.90
6407;DHT22;3236;51.022;6.818;2023-02-01T08:08:45;5.30;99.90
6407;DHT22;3236;51.022;6.818;2023-02-01T08:11:13;5.60;99.90
6407;DHT22;3236;51.022;6.818;2023-02-01T08:13:40;5.60;99.90
6407;DHT22;3236;51.022;6.818;2023-02-01T08:16:09;5.50;99.90
6407;DHT22;3236;51.022;6.818;2023-02-01T08:18:37;5.90;99.90
6407;DHT22;3236;51.022;6.818;2023-02-01T08:21:06;5.60;99.90
6407;DHT22;3236;51.022;6.818;2023-02-01T08:23:43;5.50;99.90
6407;DHT22;3236;51.022;6.818;2023-02-01T08:26:12;5.30;99.90
6407;DHT22;3236;51.022;6.818;2023-02-01T08:28:41;5.60;99.90
6407;DHT22;3236;51.022;6.818;2023-02-01T08:31:15;5.90;99.90
6407;DHT22;3236;51.022;6.818;2023-02-01T08:33:44;5.70;99.90
6407;DHT22;3236;51.022;6.818;2023-02-01T08:36:14;5.70;99.90
6407;DHT22;3236;51.022;6.818;2023-02-01T08:38:42;5.70;99.90
6407;DHT22;3236;51.022;6.818;2023-02-01T08:41:14;5.70;99.90
6407;DHT22;3236;51.022;6.818;2023-02-01T08:43:42;5.60;99.90
6407;DHT22;3236;51.022;6.818;2023-02-01T08:46:10;5.70;99.90
6407;DHT22;3236;51.022;6.818;2023-02-01T08:48:38;6.10;99.90
6407;DHT22;3236;51.022;6.818;2023-02-01T08:51:07;5.80;99.90
6407;DHT22;3236;51.022;6.818;2023-02-01T08:53:35;5.70;99.90
6407;DHT22;3236;51.022;6.818;2023-02-01T08:56:05;6.10;99.90
6407;DHT22;3236;51.022;6.818;2023-02-01T08:58:32;6.10;99.90
6407;DHT22;3236;51.022;6.818;2023-02-01T09:01:03;5.90;99.90
6407;DHT22;3236;51.022;6.818;2023-02-01T09:03:30;6.00;99.90
6407;DHT22;3236;51.022;6.818;2023-02-01T09:06:00;6.00;99.90
6407;DHT22;3236;51.022;6.818;2023-02-01T09:08:27;6.10;99.90
6407;DHT22;3236;51.022;6.818;2023-02-01T09:10:59;6.00;99.90
6407;DHT22;3236;51.022;6.818;2023-02-01T09:13:27;6.10;99.90
6407;DHT22;3236;51.022;6.818;2023-02-01T09:15:55;5.40;99.90
6407;DHT22;3236;51.022;6.818;2023-02-01T09:18:25;6.30;99.90
6407;DHT22;3236;51.022;6.818;2023-02-01T09:20:52;6.10;99.90
6407;DHT22;3236;51.022;6.818;2023-02-01T09:23:19;5.80;99.90
6407;DHT22;3236;51.022;6.818;2023-02-01T09:25:48;6.10;99.90
6407;DHT22;3236;51.022;6.818;2023-02-01T09:28:16;6.10;99.90
6407;DHT22;3236;51.022;6.818;2023-02-01T09:30:44;6.50;99.90
6407;DHT22;3236;51.022;6.818;2023-02-01T09:33:11;6.00;99.90
6407;DHT22;3236;51.022;6.818;2023-02-01T09:35:38;6.30;99.90
6407;DHT22;3236;51.022;6.818;2023-02-01T09:38:06;5.90;99.90
6407;DHT22;3236;51.022;6.818;2023-02-01T09:43:16;6.70;99.90
6407;DHT22;3236;51.022;6.818;2023-02-01T09:45:51;6.40;99.90
6407;DHT22;3236;51.022;6.818;2023-02-01T09:48:26;6.80;99.90
6407;DHT22;3236;51.022;6.818;2023-02-01T09:50:57;6.50;99.90
6407;DHT22;3236;51.022;6.818;2023-02-01T09:53:28;6.50;99.90
6407;DHT22;3236;51.022;6.818;2023-02-01T09:56:00;6.40;99.90
6407;DHT22;3236;51.022;6.818;2023-02-01T09:58:33;6.50;99.90
6407;DHT22;3236;51.022;6.818;2023-02-01T10:01:08;6.50;99.90
6407;DHT22;3236;51.022;6.818;2023-02-01T10:03:41;7.90;99.90
6407;DHT22;3236;51.022;6.818;2023-02-01T10:06:28;6.60;99.90
6407;DHT22;3236;51.022;6.818;2023-02-01T10:09:24;6.80;99.90
6407;DHT22;3236;51.022;6.818;2023-02-01T10:15:15;6.70;99.90
6407;DHT22;3236;51.022;6.818;2023-02-01T10:17:56;6.90;99.90
6407;DHT22;3236;51.022;6.818;2023-02-01T10:20:28;6.90;99.90
6407;DHT22;3236;51.022;6.818;2023-02-01T10:23:06;7.20;99.90
6407;DHT22;3236;51.022;6.818;2023-02-01T10:25:44;6.90;99.90
6407;DHT22;3236;51.022;6.818;2023-02-01T10:28:19;7.10;99.90
6407;DHT22;3236;51.022;6.818;2023-02-01T10:30:48;7.00;99.90
6407;DHT22;3236;51.022;6.818;2023-02-01T10:33:20;7.10;99.90
6407;DHT22;3236;51.022;6.818;2023-02-01T10:35:53;7.40;99.90
6407;DHT22;3236;51.022;6.818;2023-02-01T10:38:26;7.20;99.90
6407;DHT22;3236;51.022;6.818;2023-02-01T10:40:56;7.10;99.90
6407;DHT22;3236;51.022;6.818;2023-02-01T10:43:25;7.40;99.90
6407;DHT22;3236;51.022;6.818;2023-02-01T10:45:53;7.30;99.90
6407;DHT22;3236;51.022;6.818;2023-02-01T10:48:21;8.00;99.90
6407;DHT22;3236;51.022;6.818;2023-02-01T10:50:53;7.90;99.90
6407;DHT22;3236;51.022;6.818;2023-02-01T10:53:24;8.10;99.90
6407;DHT22;3236;51.022;6.818;2023-02-01T10:55:53;7.90;99.90
6407;DHT22;3236;51.022;6.818;2023-02-01T10:58:27;7.90;99.90
6407;DHT22;3236;51.022;6.818;2023-02-01T11:00:58;7.70;99.90
6407;DHT22;3236;51.022;6.818;2023-02-01T11:03:39;7.70;99.90
6407;DHT22;3236;51.022;6.818;2023-02-01T11:06:19;8.20;99.90
6407;DHT22;3236;51.022;6.818;2023-02-01T11:08:50;8.00;99.90
6407;DHT22;3236;51.022;6.818;2023-02-01T11:11:26;7.90;99.90
6407;DHT22;3236;51.022;6.818;2023-02-01T11:13:55;8.00;99.90
6407;DHT22;3236;51.022;6.818;2023-02-01T11:16:30;8.00;99.90
6407;DHT22;3236;51.022;6.818;2023-02-01T11:19:01;8.10;99.90
6407;DHT22;3236;51.022;6.818;2023-02-01T11:21:33;8.10;99.90
6407;DHT22;3236;51.022;6.818;2023-02-01T11:24:02;8.20;99.90
6407;DHT22;3236;51.022;6.818;2023-02-01T11:29:04;7.70;99.90
6407;DHT22;3236;51.022;6.818;2023-02-01T11:31:34;8.00;99.90
6407;DHT22;3236;51.022;6.818;2023-02-01T11:34:08;8.60;99.90
6407;DHT22;3236;51.022;6.818;2023-02-01T11:36:36;8.70;99.90
6407;DHT22;3236;51.022;6.818;2023-02-01T11:39:18;8.10;99.90
6407;DHT22;3236;51.022;6.818;2023-02-01T11:41:58;8.40;99.90
6407;DHT22;3236;51.022;6.818;2023-02-01T11:49:57;8.60;99.90
6407;DHT22;3236;51.022;6.818;2023-02-01T11:55:42;8.40;99.90
6407;DHT22;3236;51.022;6.818;2023-02-01T11:58:28;8.10;99.90
6407;DHT22;3236;51.022;6.818;2023-02-01T12:01:21;7.90;99.90
6407;DHT22;3236;51.022;6.818;2023-02-01T12:04:13;7.80;99.90
6407;DHT22;3236;51.022;6.818;2023-02-01T12:06:48;7.20;99.90
6407;DHT22;3236;51.022;6.818;2023-02-01T12:09:40;7.80;99.90
6407;DHT22;3236;51.022;6.818;2023-02-01T12:12:18;7.80;99.90
6407;DHT22;3236;51.022;6.818;2023-02-01T12:14:59;7.90;99.90
6407;DHT22;3236;51.022;6.818;2023-02-01T12:17:48;7.50;99.90
6407;DHT22;3236;51.022;6.818;2023-02-01T12:20:28;7.80;99.90
6407;DHT22;3236;51.022;6.818;2023-02-01T12:23:16;8.00;99.90
6407;DHT22;3236;51.022;6.818;2023-02-01T12:26:00;8.10;99.90
6407;DHT22;3236;51.022;6.818;2023-02-01T12:29:07;8.40;99.90
6407;DHT22;3236;51.022;6.818;2023-02-01T12:31:54;8.10;99.90
6407;DHT22;3236;51.022;6.818;2023-02-01T12:34:55;8.60;99.90
6407;DHT22;3236;51.022;6.818;2023-02-01T12:37:37;8.60;99.90
6407;DHT22;3236;51.022;6.818;2023-02-01T12:40:20;8.00;99.90
6407;DHT22;3236;51.022;6.818;2023-02-01T12:42:58;8.10;99.90
6407;DHT22;3236;51.022;6.818;2023-02-01T12:45:32;8.20;99.90
6407;DHT22;3236;51.022;6.818;2023-02-01T12:48:18;7.80;99.90
6407;DHT22;3236;51.022;6.818;2023-02-01T12:50:52;8.00;99.90
6407;DHT22;3236;51.022;6.818;2023-02-01T12:53:24;7.60;99.90
6407;DHT22;3236;51.022;6.818;2023-02-01T12:55:55;7.50;99.90
6407;DHT22;3236;51.022;6.818;2023-02-01T12:58:27;7.70;99.90
6407;DHT22;3236;51.022;6.818;2023-02-01T13:00:59;7.80;99.90
6407;DHT22;3236;51.022;6.818;2023-02-01T13:03:35;7.50;99.90
6407;DHT22;3236;51.022;6.818;2023-02-01T13:06:08;7.80;99.90
6407;DHT22;3236;51.022;6.818;2023-02-01T13:08:43;8.00;99.90
6407;DHT22;3236;51.022;6.818;2023-02-01T13:11:18;7.80;99.90
6407;DHT22;3236;51.022;6.818;2023-02-01T13:13:59;8.20;99.90
6407;DHT22;3236;51.022;6.818;2023-02-01T13:16:30;7.80;99.90
6407;DHT22;3236;51.022;6.818;2023-02-01T13:19:04;7.80;99.90
6407;DHT22;3236;51.022;6.818;2023-02-01T13:21:35;7.80;99.90
6407;DHT22;3236;51.022;6.818;2023-02-01T13:24:04;7.50;99.90
6407;DHT22;3236;51.022;6.818;2023-02-01T13:26:33;7.60;99.90
6407;DHT22;3236;51.022;6.818;2023-02-01T13:29:03;7.80;99.90
6407;DHT22;3236;51.022;6.818;2023-02-01T13:34:51;7.80;99.90
6407;DHT22;3236;51.022;6.818;2023-02-01T13:37:35;7.70;99.90
6407;DHT22;3236;51.022;6.818;2023-02-01T13:40:33;8.10;99.90
6407;DHT22;3236;51.022;6.818;2023-02-01T13:43:07;7.50;99.90
6407;DHT22;3236;51.022;6.818;2023-02-01T13:45:45;7.70;99.90
6407;DHT22;3236;51.022;6.818;2023-02-01T13:48:21;7.80;99.90
6407;DHT22;3236;51.022;6.818;2023-02-01T13:50:55;7.80;99.90
6407;DHT22;3236;51.022;6.818;2023-02-01T13:53:27;7.80;99.90
6407;DHT22;3236;51.022;6.818;2023-02-01T13:55:58;7.80;99.90
6407;DHT22;3236;51.022;6.818;2023-02-01T13:58:35;8.20;99.90
6407;DHT22;3236;51.022;6.818;2023-02-01T14:04:49;7.90;99.90
6407;DHT22;3236;51.022;6.818;2023-02-01T14:07:21;7.60;99.90
6407;DHT22;3236;51.022;6.818;2023-02-01T14:09:49;8.30;99.90
6407;DHT22;3236;51.022;6.818;2023-02-01T14:15:26;8.00;99.90
6407;DHT22;3236;51.022;6.818;2023-02-01T14:17:55;8.10;99.90
6407;DHT22;3236;51.022;6.818;2023-02-01T14:20:43;8.10;99.90
6407;DHT22;3236;51.022;6.818;2023-02-01T14:26:10;8.20;99.90
6407;DHT22;3236;51.022;6.818;2023-02-01T14:28:42;8.20;99.90
6407;DHT22;3236;51.022;6.818;2023-02-01T14:34:31;8.20;99.90
6407;DHT22;3236;51.022;6.818;2023-02-01T14:37:05;8.20;99.90
6407;DHT22;3236;51.022;6.818;2023-02-01T14:39:50;8.30;99.90
6407;DHT22;3236;51.022;6.818;2023-02-01T14:42:23;8.30;99.90
6407;DHT22;3236;51.022;6.818;2023-02-01T14:44:54;8.30;99.90
6407;DHT22;3236;51.022;6.818;2023-02-01T14:47:31;8.10;99.90
6407;DHT22;3236;51.022;6.818;2023-02-01T14:50:31;8.20;99.90
6407;DHT22;3236;51.022;6.818;2023-02-01T14:53:13;8.00;99.90
6407;DHT22;3236;51.022;6.818;2023-02-01T14:55:44;8.10;99.90
6407;DHT22;3236;51.022;6.818;2023-02-01T14:58:23;7.90;99.90
6407;DHT22;3236;51.022;6.818;2023-02-01T15:00:58;8.40;99.90
6407;DHT22;3236;51.022;6.818;2023-02-01T15:03:39;8.20;99.90
6407;DHT22;3236;51.022;6.818;2023-02-01T15:06:33;9.20;99.90
6407;DHT22;3236;51.022;6.818;2023-02-01T15:09:09;8.20;99.90
6407;DHT22;3236;51.022;6.818;2023-02-01T15:12:01;8.00;99.90
6407;DHT22;3236;51.022;6.818;2023-02-01T15:14:36;8.10;99.90
6407;DHT22;3236;51.022;6.818;2023-02-01T15:17:18;8.30;99.90
6407;DHT22;3236;51.022;6.818;2023-02-01T15:19:53;8.50;99.90
6407;DHT22;3236;51.022;6.818;2023-02-01T15:24:54;8.20;99.90
6407;DHT22;3236;51.022;6.818;2023-02-01T15:27:25;8.10;99.90
6407;DHT22;3236;51.022;6.818;2023-02-01T15:29:53;8.40;99.90
6407;DHT22;3236;51.022;6.818;2023-02-01T16:04:23;8.10;99.90
6407;DHT22;3236;51.022;6.818;2023-02-01T16:09:57;8.10;99.90
6407;DHT22;3236;51.022;6.818;2023-02-01T16:12:32;8.10;99.90
6407;DHT22;3236;51.022;6.818;2023-02-01T16:15:02;8.10;99.90
6407;DHT22;3236;51.022;6.818;2023-02-01T16:37:20;7.80;99.90
6407;DHT22;3236;51.022;6.818;2023-02-01T16:39:48;7.40;99.90
6407;DHT22;3236;51.022;6.818;2023-02-01T16:44:44;7.60;99.90
6407;DHT22;3236;51.022;6.818;2023-02-01T16:47:14;7.60;99.90
6407;DHT22;3236;51.022;6.818;2023-02-01T16:52:14;8.00;99.90
6407;DHT22;3236;51.022;6.818;2023-02-01T16:57:12;7.50;99.90
6407;DHT22;3236;51.022;6.818;2023-02-01T17:02:12;7.20;99.90
6407;DHT22;3236;51.022;6.818;2023-02-01T17:04:40;7.30;99.90
6407;DHT22;3236;51.022;6.818;2023-02-01T17:07:12;7.70;99.90
6407;DHT22;3236;51.022;6.818;2023-02-01T17:12:17;7.60;99.90
6407;DHT22;3236;51.022;6.818;2023-02-01T17:17:16;7.60;99.90
6407;DHT22;3236;51.022;6.818;2023-02-01T17:19:44;7.70;99.90
6407;DHT22;3236;51.022;6.818;2023-02-01T17:22:15;7.90;99.90
6407;DHT22;3236;51.022;6.818;2023-02-01T17:24:42;7.40;99.90
6407;DHT22;3236;51.022;6.818;2023-02-01T17:29:37;7.00;99.90
6407;DHT22;3236;51.022;6.818;2023-02-01T17:32:12;7.30;99.90
6407;DHT22;3236;51.022;6.818;2023-02-01T17:37:30;7.40;99.90
6407;DHT22;3236;51.022;6.818;2023-02-01T17:42:27;7.50;99.90
6407;DHT22;3236;51.022;6.818;2023-02-01T17:44:56;7.80;99.90
6407;DHT22;3236;51.022;6.818;2023-02-01T17:49:59;7.50;99.90
6407;DHT22;3236;51.022;6.818;2023-02-01T17:52:26;7.80;99.90
6407;DHT22;3236;51.022;6.818;2023-02-01T17:54:54;7.40;99.90
6407;DHT22;3236;51.022;6.818;2023-02-01T17:59:52;7.50;99.90
6407;DHT22;3236;51.022;6.818;2023-02-01T18:02:21;7.40;99.90
6407;DHT22;3236;51.022;6.818;2023-02-01T18:07:17;7.80;99.90
6407;DHT22;3236;51.022;6.818;2023-02-01T18:14:42;7.20;99.90
6407;DHT22;3236;51.022;6.818;2023-02-01T18:17:13;7.30;99.90
6407;DHT22;3236;51.022;6.818;2023-02-01T18:19:40;7.30;99.90
6407;DHT22;3236;51.022;6.818;2023-02-01T18:22:15;7.70;99.90
6407;DHT22;3236;51.022;6.818;2023-02-01T18:27:10;7.40;99.90
6407;DHT22;3236;51.022;6.818;2023-02-01T18:29:38;7.30;99.90
6407;DHT22;3236;51.022;6.818;2023-02-01T18:32:09;7.60;99.90
6407;DHT22;3236;51.022;6.818;2023-02-01T18:37:33;7.20;99.90
6407;DHT22;3236;51.022;6.818;2023-02-01T18:40:00;7.40;99.90
6407;DHT22;3236;51.022;6.818;2023-02-01T18:44:58;7.60;99.90
6407;DHT22;3236;51.022;6.818;2023-02-01T18:47:26;7.40;99.90
6407;DHT22;3236;51.022;6.818;2023-02-01T18:49:53;7.70;99.90
6407;DHT22;3236;51.022;6.818;2023-02-01T18:52:20;7.50;99.90
6407;DHT22;3236;51.022;6.818;2023-02-01T18:54:49;7.30;99.90
6407;DHT22;3236;51.022;6.818;2023-02-01T18:57:16;7.60;99.90
6407;DHT22;3236;51.022;6.818;2023-02-01T19:02:16;7.60;99.90
6407;DHT22;3236;51.022;6.818;2023-02-01T19:04:43;7.50;99.90
6407;DHT22;3236;51.022;6.818;2023-02-01T19:09:44;7.50;99.90
6407;DHT22;3236;51.022;6.818;2023-02-01T19:19:36;7.60;99.90
6407;DHT22;3236;51.022;6.818;2023-02-01T19:24:31;7.90;99.90
6407;DHT22;3236;51.022;6.818;2023-02-01T19:34:27;7.60;99.90
6407;DHT22;3236;51.022;6.818;2023-02-01T19:36:54;7.60;99.90
6407;DHT22;3236;51.022;6.818;2023-02-01T19:39:21;7.90;99.90
6407;DHT22;3236;51.022;6.818;2023-02-01T19:41:49;7.60;99.90
6407;DHT22;3236;51.022;6.818;2023-02-01T19:44:17;7.60;99.90
6407;DHT22;3236;51.022;6.818;2023-02-01T19:49:14;7.20;99.90
6407;DHT22;3236;51.022;6.818;2023-02-01T19:51:46;8.40;99.90